Metar Aviation Weather Data EGNJ

14°C Temp
8°C Dewpoint
% Humidity
Temperature
8 KM/H
5 MPH
4 KTS
250°
West South
West

Wind Speed
Clear
Conditions
Pressure 1034.92 (hPa) - 30.56 (in)
Visibility 6.2 (mi) - 10 (km)

Current Conditions
EGNJ
Metar :EGNJ 260550Z AUTO 25004KT 9999 NCD 14/08 Q1035
Tue 26th May 06:50 am

  Metar Aviation API Data Provided by https://www.checkwx.com/ PHP scripts by weather34.com ©2020